sensor_id;sensor_type;location;lat;lon;timestamp;pressure;altitude;pressure_sealevel;temperature;humidity
75136;BME280;63707;52.212;9.540;2023-12-20T00:02:13;99718.47;;;5.91;100.00
75136;BME280;63707;52.212;9.540;2023-12-20T00:04:39;99720.34;;;5.90;100.00
75136;BME280;63707;52.212;9.540;2023-12-20T00:07:06;99723.56;;;5.86;100.00
75136;BME280;63707;52.212;9.540;2023-12-20T00:09:31;99718.44;;;5.76;100.00
75136;BME280;63707;52.212;9.540;2023-12-20T00:11:56;99708.34;;;5.70;100.00
75136;BME280;63707;52.212;9.540;2023-12-20T00:14:22;99718.00;;;5.64;100.00
75136;BME280;63707;52.212;9.540;2023-12-20T00:16:47;99721.81;;;5.55;100.00
75136;BME280;63707;52.212;9.540;2023-12-20T00:19:13;99725.72;;;5.53;100.00
75136;BME280;63707;52.212;9.540;2023-12-20T00:21:38;99722.38;;;5.51;100.00
75136;BME280;63707;52.212;9.540;2023-12-20T00:24:06;99711.69;;;5.34;100.00
75136;BME280;63707;52.212;9.540;2023-12-20T00:26:31;99717.66;;;5.30;100.00
75136;BME280;63707;52.212;9.540;2023-12-20T00:28:57;99720.25;;;5.15;100.00
75136;BME280;63707;52.212;9.540;2023-12-20T00:31:22;99736.81;;;5.12;100.00
75136;BME280;63707;52.212;9.540;2023-12-20T00:33:48;99733.22;;;4.97;100.00
75136;BME280;63707;52.212;9.540;2023-12-20T00:36:13;99739.41;;;5.05;100.00
75136;BME280;63707;52.212;9.540;2023-12-20T00:38:39;99729.44;;;5.06;100.00
75136;BME280;63707;52.212;9.540;2023-12-20T00:41:05;99739.47;;;4.97;100.00
75136;BME280;63707;52.212;9.540;2023-12-20T00:43:31;99751.63;;;4.93;100.00
75136;BME280;63707;52.212;9.540;2023-12-20T00:45:57;99743.53;;;4.93;100.00
75136;BME280;63707;52.212;9.540;2023-12-20T00:48:22;99734.78;;;4.91;100.00
75136;BME280;63707;52.212;9.540;2023-12-20T00:50:48;99736.47;;;4.92;100.00
75136;BME280;63707;52.212;9.540;2023-12-20T00:53:13;99736.91;;;4.73;100.00
75136;BME280;63707;52.212;9.540;2023-12-20T00:55:38;99743.00;;;4.67;100.00
75136;BME280;63707;52.212;9.540;2023-12-20T00:58:05;99743.66;;;4.69;100.00
75136;BME280;63707;52.212;9.540;2023-12-20T01:00:31;99753.94;;;4.73;100.00
75136;BME280;63707;52.212;9.540;2023-12-20T01:02:56;99751.78;;;4.61;100.00
75136;BME280;63707;52.212;9.540;2023-12-20T01:05:22;99738.25;;;4.77;100.00
75136;BME280;63707;52.212;9.540;2023-12-20T01:07:50;99739.13;;;4.61;100.00
75136;BME280;63707;52.212;9.540;2023-12-20T01:10:16;99743.34;;;4.64;100.00
75136;BME280;63707;52.212;9.540;2023-12-20T01:12:43;99742.50;;;4.63;100.00
75136;BME280;63707;52.212;9.540;2023-12-20T01:15:10;99735.06;;;4.65;100.00
75136;BME280;63707;52.212;9.540;2023-12-20T01:17:36;99732.72;;;4.62;100.00
75136;BME280;63707;52.212;9.540;2023-12-20T01:20:02;99738.25;;;4.69;100.00
75136;BME280;63707;52.212;9.540;2023-12-20T01:22:28;99730.50;;;4.74;100.00
75136;BME280;63707;52.212;9.540;2023-12-20T01:24:53;99733.88;;;4.68;100.00
75136;BME280;63707;52.212;9.540;2023-12-20T01:27:19;99736.03;;;4.81;100.00
75136;BME280;63707;52.212;9.540;2023-12-20T01:29:44;99729.97;;;4.79;100.00
75136;BME280;63707;52.212;9.540;2023-12-20T01:32:11;99737.06;;;4.71;100.00
75136;BME280;63707;52.212;9.540;2023-12-20T01:34:36;99742.13;;;4.74;100.00
75136;BME280;63707;52.212;9.540;2023-12-20T01:37:02;99738.91;;;4.79;100.00
75136;BME280;63707;52.212;9.540;2023-12-20T01:39:28;99753.00;;;4.89;100.00
75136;BME280;63707;52.212;9.540;2023-12-20T01:41:53;99751.19;;;4.82;100.00
75136;BME280;63707;52.212;9.540;2023-12-20T01:44:19;99743.09;;;4.82;100.00
75136;BME280;63707;52.212;9.540;2023-12-20T01:46:45;99746.59;;;4.90;100.00
75136;BME280;63707;52.212;9.540;2023-12-20T01:49:12;99734.47;;;4.86;100.00
75136;BME280;63707;52.212;9.540;2023-12-20T01:51:38;99750.19;;;4.83;100.00
75136;BME280;63707;52.212;9.540;2023-12-20T01:54:04;99745.41;;;4.93;100.00
75136;BME280;63707;52.212;9.540;2023-12-20T01:56:31;99739.22;;;4.84;100.00
75136;BME280;63707;52.212;9.540;2023-12-20T01:58:57;99747.47;;;4.83;100.00
75136;BME280;63707;52.212;9.540;2023-12-20T02:01:23;99748.81;;;4.87;100.00
75136;BME280;63707;52.212;9.540;2023-12-20T02:03:50;99754.50;;;4.92;100.00
75136;BME280;63707;52.212;9.540;2023-12-20T02:06:18;99738.84;;;4.87;100.00
75136;BME280;63707;52.212;9.540;2023-12-20T02:08:43;99744.13;;;4.81;100.00
75136;BME280;63707;52.212;9.540;2023-12-20T02:11:10;99749.53;;;4.81;100.00
75136;BME280;63707;52.212;9.540;2023-12-20T02:13:35;99745.34;;;4.70;100.00
75136;BME280;63707;52.212;9.540;2023-12-20T02:16:01;99751.31;;;4.57;100.00
75136;BME280;63707;52.212;9.540;2023-12-20T02:18:26;99740.03;;;4.54;100.00
75136;BME280;63707;52.212;9.540;2023-12-20T02:20:52;99732.53;;;4.64;100.00
75136;BME280;63707;52.212;9.540;2023-12-20T02:23:20;99739.13;;;4.61;100.00
75136;BME280;63707;52.212;9.540;2023-12-20T02:25:45;99723.78;;;4.62;100.00
75136;BME280;63707;52.212;9.540;2023-12-20T02:28:11;99716.94;;;4.51;100.00
75136;BME280;63707;52.212;9.540;2023-12-20T02:30:37;99707.03;;;4.43;100.00
75136;BME280;63707;52.212;9.540;2023-12-20T02:33:03;99713.16;;;4.29;100.00
75136;BME280;63707;52.212;9.540;2023-12-20T02:35:32;99716.34;;;4.33;100.00
75136;BME280;63707;52.212;9.540;2023-12-20T02:37:58;99713.66;;;4.25;100.00
75136;BME280;63707;52.212;9.540;2023-12-20T02:40:25;99710.63;;;4.28;100.00
75136;BME280;63707;52.212;9.540;2023-12-20T02:42:50;99711.06;;;4.48;100.00
75136;BME280;63707;52.212;9.540;2023-12-20T02:45:16;99706.13;;;4.51;100.00
75136;BME280;63707;52.212;9.540;2023-12-20T02:47:41;99701.31;;;4.38;100.00
75136;BME280;63707;52.212;9.540;2023-12-20T02:50:07;99713.28;;;4.36;100.00
75136;BME280;63707;52.212;9.540;2023-12-20T02:52:33;99709.63;;;4.29;100.00
75136;BME280;63707;52.212;9.540;2023-12-20T02:54:58;99708.25;;;4.33;100.00
75136;BME280;63707;52.212;9.540;2023-12-20T02:57:25;99698.47;;;4.32;100.00
75136;BME280;63707;52.212;9.540;2023-12-20T02:59:50;99701.66;;;4.35;100.00
75136;BME280;63707;52.212;9.540;2023-12-20T03:02:16;99704.88;;;4.31;100.00
75136;BME280;63707;52.212;9.540;2023-12-20T03:04:41;99697.81;;;4.30;100.00
75136;BME280;63707;52.212;9.540;2023-12-20T03:07:07;99699.38;;;4.16;100.00
75136;BME280;63707;52.212;9.540;2023-12-20T03:09:32;99708.78;;;4.20;100.00
75136;BME280;63707;52.212;9.540;2023-12-20T03:11:58;99707.94;;;4.20;100.00
75136;BME280;63707;52.212;9.540;2023-12-20T03:14:24;99700.38;;;4.15;100.00
75136;BME280;63707;52.212;9.540;2023-12-20T03:16:50;99700.88;;;4.19;100.00
75136;BME280;63707;52.212;9.540;2023-12-20T03:19:16;99708.47;;;4.15;100.00
75136;BME280;63707;52.212;9.540;2023-12-20T03:21:42;99701.06;;;4.09;100.00
75136;BME280;63707;52.212;9.540;2023-12-20T03:24:07;99699.03;;;4.11;100.00
75136;BME280;63707;52.212;9.540;2023-12-20T03:26:32;99701.59;;;4.04;100.00
75136;BME280;63707;52.212;9.540;2023-12-20T03:28:58;99696.38;;;4.03;100.00
75136;BME280;63707;52.212;9.540;2023-12-20T03:31:25;99689.13;;;4.03;100.00
75136;BME280;63707;52.212;9.540;2023-12-20T03:33:50;99677.34;;;4.04;100.00
75136;BME280;63707;52.212;9.540;2023-12-20T03:36:17;99673.13;;;4.02;100.00
75136;BME280;63707;52.212;9.540;2023-12-20T03:38:42;99687.63;;;4.01;100.00
75136;BME280;63707;52.212;9.540;2023-12-20T03:41:08;99676.63;;;4.10;100.00
75136;BME280;63707;52.212;9.540;2023-12-20T03:43:33;99679.97;;;4.21;100.00
75136;BME280;63707;52.212;9.540;2023-12-20T03:45:59;99665.63;;;4.20;100.00
75136;BME280;63707;52.212;9.540;2023-12-20T03:48:26;99665.16;;;4.17;100.00
75136;BME280;63707;52.212;9.540;2023-12-20T03:50:52;99658.03;;;4.24;100.00
75136;BME280;63707;52.212;9.540;2023-12-20T03:53:17;99658.72;;;4.26;100.00
75136;BME280;63707;52.212;9.540;2023-12-20T03:55:43;99650.25;;;4.37;100.00
75136;BME280;63707;52.212;9.540;2023-12-20T03:58:09;99645.16;;;4.42;100.00
75136;BME280;63707;52.212;9.540;2023-12-20T04:00:34;99638.25;;;4.39;100.00
75136;BME280;63707;52.212;9.540;2023-12-20T04:03:00;99647.38;;;4.38;100.00
75136;BME280;63707;52.212;9.540;2023-12-20T04:05:27;99646.00;;;4.42;100.00
75136;BME280;63707;52.212;9.540;2023-12-20T04:07:52;99643.47;;;4.41;100.00
75136;BME280;63707;52.212;9.540;2023-12-20T04:10:18;99645.03;;;4.35;100.00
75136;BME280;63707;52.212;9.540;2023-12-20T04:12:43;99638.78;;;4.35;100.00
75136;BME280;63707;52.212;9.540;2023-12-20T04:15:09;99646.53;;;4.38;100.00
75136;BME280;63707;52.212;9.540;2023-12-20T04:17:35;99646.19;;;4.41;100.00
75136;BME280;63707;52.212;9.540;2023-12-20T04:20:02;99635.56;;;4.39;100.00
75136;BME280;63707;52.212;9.540;2023-12-20T04:22:29;99642.63;;;4.40;100.00
75136;BME280;63707;52.212;9.540;2023-12-20T04:24:54;99633.78;;;4.55;100.00
75136;BME280;63707;52.212;9.540;2023-12-20T04:27:20;99634.50;;;4.49;100.00
75136;BME280;63707;52.212;9.540;2023-12-20T04:29:45;99627.59;;;4.46;100.00
75136;BME280;63707;52.212;9.540;2023-12-20T04:32:11;99628.63;;;4.45;100.00
75136;BME280;63707;52.212;9.540;2023-12-20T04:34:36;99623.72;;;4.49;100.00
75136;BME280;63707;52.212;9.540;2023-12-20T04:37:02;99622.88;;;4.48;100.00
75136;BME280;63707;52.212;9.540;2023-12-20T04:39:29;99617.28;;;4.50;100.00
75136;BME280;63707;52.212;9.540;2023-12-20T04:41:54;99633.00;;;4.46;100.00
75136;BME280;63707;52.212;9.540;2023-12-20T04:44:20;99623.03;;;4.47;100.00
75136;BME280;63707;52.212;9.540;2023-12-20T04:46:45;99625.22;;;4.51;100.00
75136;BME280;63707;52.212;9.540;2023-12-20T04:49:11;99624.84;;;4.54;100.00
75136;BME280;63707;52.212;9.540;2023-12-20T04:51:36;99623.00;;;4.55;100.00
75136;BME280;63707;52.212;9.540;2023-12-20T04:54:03;99613.69;;;4.57;100.00
75136;BME280;63707;52.212;9.540;2023-12-20T04:56:30;99617.22;;;4.58;100.00
75136;BME280;63707;52.212;9.540;2023-12-20T04:58:55;99631.56;;;4.58;100.00
75136;BME280;63707;52.212;9.540;2023-12-20T05:01:21;99624.97;;;5.29;100.00
75136;BME280;63707;52.212;9.540;2023-12-20T05:03:46;99624.53;;;4.80;100.00
75136;BME280;63707;52.212;9.540;2023-12-20T05:06:12;99625.25;;;4.74;100.00
75136;BME280;63707;52.212;9.540;2023-12-20T05:08:37;99613.94;;;4.70;100.00
75136;BME280;63707;52.212;9.540;2023-12-20T05:11:03;99613.59;;;4.73;100.00
75136;BME280;63707;52.212;9.540;2023-12-20T05:13:30;99610.38;;;4.78;100.00
75136;BME280;63707;52.212;9.540;2023-12-20T05:15:56;99619.66;;;4.76;100.00
75136;BME280;63707;52.212;9.540;2023-12-20T05:18:21;99623.22;;;4.76;100.00
75136;BME280;63707;52.212;9.540;2023-12-20T05:20:48;99619.31;;;4.79;100.00
75136;BME280;63707;52.212;9.540;2023-12-20T05:23:13;99615.63;;;4.71;100.00
75136;BME280;63707;52.212;9.540;2023-12-20T05:25:39;99612.78;;;4.73;100.00
75136;BME280;63707;52.212;9.540;2023-12-20T05:28:05;99611.38;;;4.77;100.00
75136;BME280;63707;52.212;9.540;2023-12-20T05:30:32;99616.13;;;4.75;100.00
75136;BME280;63707;52.212;9.540;2023-12-20T05:32:57;99604.13;;;4.78;100.00
75136;BME280;63707;52.212;9.540;2023-12-20T05:35:23;99614.28;;;4.76;100.00
75136;BME280;63707;52.212;9.540;2023-12-20T05:37:48;99615.63;;;4.71;100.00
75136;BME280;63707;52.212;9.540;2023-12-20T05:40:14;99618.50;;;4.70;100.00
75136;BME280;63707;52.212;9.540;2023-12-20T05:42:39;99611.97;;;4.64;100.00
75136;BME280;63707;52.212;9.540;2023-12-20T05:45:05;99618.44;;;4.55;100.00
75136;BME280;63707;52.212;9.540;2023-12-20T05:47:32;99612.72;;;4.50;100.00
75136;BME280;63707;52.212;9.540;2023-12-20T05:49:58;99630.59;;;4.51;100.00
75136;BME280;63707;52.212;9.540;2023-12-20T05:52:24;99623.53;;;4.50;100.00
75136;BME280;63707;52.212;9.540;2023-12-20T05:54:49;99631.91;;;4.55;100.00
75136;BME280;63707;52.212;9.540;2023-12-20T05:57:15;99629.88;;;4.57;100.00
75136;BME280;63707;52.212;9.540;2023-12-20T05:59:40;99641.28;;;4.67;100.00
75136;BME280;63707;52.212;9.540;2023-12-20T06:02:06;99628.69;;;4.60;100.00
75136;BME280;63707;52.212;9.540;2023-12-20T06:04:33;99624.97;;;4.61;100.00
75136;BME280;63707;52.212;9.540;2023-12-20T06:06:59;99635.75;;;4.61;100.00
75136;BME280;63707;52.212;9.540;2023-12-20T06:09:24;99625.44;;;4.64;100.00
75136;BME280;63707;52.212;9.540;2023-12-20T06:11:50;99628.81;;;4.66;100.00
75136;BME280;63707;52.212;9.540;2023-12-20T06:14:16;99631.31;;;4.68;100.00
75136;BME280;63707;52.212;9.540;2023-12-20T06:16:41;99634.50;;;4.71;100.00
75136;BME280;63707;52.212;9.540;2023-12-20T06:19:07;99640.25;;;4.68;100.00
75136;BME280;63707;52.212;9.540;2023-12-20T06:21:34;99625.94;;;4.68;100.00
75136;BME280;63707;52.212;9.540;2023-12-20T06:23:59;99630.53;;;4.59;100.00
75136;BME280;63707;52.212;9.540;2023-12-20T06:26:25;99631.44;;;4.52;100.00
75136;BME280;63707;52.212;9.540;2023-12-20T06:28:50;99641.38;;;4.51;100.00
75136;BME280;63707;52.212;9.540;2023-12-20T06:31:16;99642.22;;;4.52;100.00
75136;BME280;63707;52.212;9.540;2023-12-20T06:33:42;99644.94;;;4.52;100.00
75136;BME280;63707;52.212;9.540;2023-12-20T06:36:11;99642.41;;;4.50;100.00
75136;BME280;63707;52.212;9.540;2023-12-20T06:38:38;99636.84;;;4.52;100.00
75136;BME280;63707;52.212;9.540;2023-12-20T06:41:04;99641.38;;;4.51;100.00
75136;BME280;63707;52.212;9.540;2023-12-20T06:43:29;99647.28;;;4.55;100.00
75136;BME280;63707;52.212;9.540;2023-12-20T06:45:56;99642.22;;;4.52;100.00
75136;BME280;63707;52.212;9.540;2023-12-20T06:48:21;99644.94;;;4.52;100.00
75136;BME280;63707;52.212;9.540;2023-12-20T06:50:47;99637.19;;;4.49;100.00
75136;BME280;63707;52.212;9.540;2023-12-20T06:53:12;99649.84;;;4.48;100.00
75136;BME280;63707;52.212;9.540;2023-12-20T06:55:39;99638.53;;;4.53;100.00
75136;BME280;63707;52.212;9.540;2023-12-20T06:58:05;99631.44;;;4.52;100.00
75136;BME280;63707;52.212;9.540;2023-12-20T07:00:30;99629.41;;;4.54;100.00
75136;BME280;63707;52.212;9.540;2023-12-20T07:02:56;99621.97;;;4.56;100.00
75136;BME280;63707;52.212;9.540;2023-12-20T07:05:21;99608.00;;;4.52;100.00
75136;BME280;63707;52.212;9.540;2023-12-20T07:07:47;99615.91;;;4.54;100.00
75136;BME280;63707;52.212;9.540;2023-12-20T07:10:13;99611.72;;;4.51;100.00
75136;BME280;63707;52.212;9.540;2023-12-20T07:12:40;99612.88;;;4.80;100.00
75136;BME280;63707;52.212;9.540;2023-12-20T07:15:06;99616.63;;;4.48;100.00
75136;BME280;63707;52.212;9.540;2023-12-20T07:17:32;99605.31;;;4.52;100.00
75136;BME280;63707;52.212;9.540;2023-12-20T07:19:58;99613.09;;;4.47;100.00
75136;BME280;63707;52.212;9.540;2023-12-20T07:22:24;99602.13;;;4.49;100.00
75136;BME280;63707;52.212;9.540;2023-12-20T07:24:49;99609.38;;;4.48;100.00
75136;BME280;63707;52.212;9.540;2023-12-20T07:27:17;99616.56;;;4.56;100.00
75136;BME280;63707;52.212;9.540;2023-12-20T07:29:44;99612.19;;;4.55;100.00
75136;BME280;63707;52.212;9.540;2023-12-20T07:32:09;99610.69;;;4.52;100.00
75136;BME280;63707;52.212;9.540;2023-12-20T07:34:35;99615.72;;;4.55;100.00
75136;BME280;63707;52.212;9.540;2023-12-20T07:37:00;99607.81;;;4.54;100.00
75136;BME280;63707;52.212;9.540;2023-12-20T07:39:26;99608.00;;;4.52;100.00
75136;BME280;63707;52.212;9.540;2023-12-20T07:41:51;99612.38;;;4.53;100.00
75136;BME280;63707;52.212;9.540;2023-12-20T07:44:17;99606.97;;;4.53;100.00
75136;BME280;63707;52.212;9.540;2023-12-20T07:46:43;99601.22;;;4.56;100.00
75136;BME280;63707;52.212;9.540;2023-12-20T07:49:09;99600.69;;;4.61;100.00
75136;BME280;63707;52.212;9.540;2023-12-20T07:51:35;99595.47;;;4.59;100.00
75136;BME280;63707;52.212;9.540;2023-12-20T07:54:00;99599.84;;;4.60;100.00
75136;BME280;63707;52.212;9.540;2023-12-20T07:56:26;99596.78;;;4.63;100.00
75136;BME280;63707;52.212;9.540;2023-12-20T07:58:51;99601.16;;;4.64;100.00
75136;BME280;63707;52.212;9.540;2023-12-20T08:01:17;99596.06;;;4.69;100.00
75136;BME280;63707;52.212;9.540;2023-12-20T08:03:45;99598.47;;;4.64;100.00
75136;BME280;63707;52.212;9.540;2023-12-20T08:06:11;99598.66;;;4.63;100.00
75136;BME280;63707;52.212;9.540;2023-12-20T08:08:37;99603.88;;;4.64;100.00
75136;BME280;63707;52.212;9.540;2023-12-20T08:11:02;99605.38;;;4.67;100.00
75136;BME280;63707;52.212;9.540;2023-12-20T08:13:28;99588.34;;;4.66;100.00
75136;BME280;63707;52.212;9.540;2023-12-20T08:15:55;99599.97;;;4.67;100.00
75136;BME280;63707;52.212;9.540;2023-12-20T08:18:21;99607.03;;;4.68;100.00
75136;BME280;63707;52.212;9.540;2023-12-20T08:20:48;99601.47;;;4.69;100.00
75136;BME280;63707;52.212;9.540;2023-12-20T08:23:15;99587.97;;;4.69;100.00
75136;BME280;63707;52.212;9.540;2023-12-20T08:25:41;99586.13;;;4.70;100.00
75136;BME280;63707;52.212;9.540;2023-12-20T08:28:06;99594.72;;;4.73;100.00
75136;BME280;63707;52.212;9.540;2023-12-20T08:30:31;99596.56;;;4.73;100.00
75136;BME280;63707;52.212;9.540;2023-12-20T08:32:59;99586.06;;;4.78;100.00
75136;BME280;63707;52.212;9.540;2023-12-20T08:35:25;99578.47;;;4.82;100.00
75136;BME280;63707;52.212;9.540;2023-12-20T08:37:51;99582.19;;;4.81;100.00
75136;BME280;63707;52.212;9.540;2023-12-20T08:40:17;99575.09;;;4.80;100.00
75136;BME280;63707;52.212;9.540;2023-12-20T08:42:42;99567.84;;;4.80;100.00
75136;BME280;63707;52.212;9.540;2023-12-20T08:45:08;99567.19;;;4.78;100.00
75136;BME280;63707;52.212;9.540;2023-12-20T08:47:34;99571.09;;;4.76;100.00
75136;BME280;63707;52.212;9.540;2023-12-20T08:49:59;99561.31;;;4.74;100.00
75136;BME280;63707;52.212;9.540;2023-12-20T08:52:26;99571.59;;;4.71;100.00
75136;BME280;63707;52.212;9.540;2023-12-20T08:54:53;99569.91;;;4.70;100.00
75136;BME280;63707;52.212;9.540;2023-12-20T08:57:19;99578.38;;;4.67;100.00
75136;BME280;63707;52.212;9.540;2023-12-20T08:59:46;99581.25;;;4.65;100.00
75136;BME280;63707;52.212;9.540;2023-12-20T09:02:12;99576.53;;;4.67;100.00
75136;BME280;63707;52.212;9.540;2023-12-20T09:04:37;99584.25;;;4.70;100.00
75136;BME280;63707;52.212;9.540;2023-12-20T09:07:03;99580.88;;;4.77;100.00
75136;BME280;63707;52.212;9.540;2023-12-20T09:09:29;99573.59;;;4.77;100.00
75136;BME280;63707;52.212;9.540;2023-12-20T09:11:55;99569.69;;;4.80;100.00
75136;BME280;63707;52.212;9.540;2023-12-20T09:14:21;99561.59;;;4.80;100.00
75136;BME280;63707;52.212;9.540;2023-12-20T09:16:46;99548.28;;;4.78;100.00
75136;BME280;63707;52.212;9.540;2023-12-20T09:19:12;99544.88;;;4.84;100.00
75136;BME280;63707;52.212;9.540;2023-12-20T09:21:37;99543.72;;;4.79;100.00
75136;BME280;63707;52.212;9.540;2023-12-20T09:24:03;99528.94;;;4.74;100.00
75136;BME280;63707;52.212;9.540;2023-12-20T09:26:29;99549.50;;;4.76;100.00
75136;BME280;63707;52.212;9.540;2023-12-20T09:28:55;99539.00;;;4.81;100.00
75136;BME280;63707;52.212;9.540;2023-12-20T09:31:22;99542.34;;;4.83;100.00
75136;BME280;63707;52.212;9.540;2023-12-20T09:33:47;99530.16;;;4.87;100.00
75136;BME280;63707;52.212;9.540;2023-12-20T09:36:13;99525.06;;;4.92;100.00
75136;BME280;63707;52.212;9.540;2023-12-20T09:38:39;99513.22;;;4.93;100.00
75136;BME280;63707;52.212;9.540;2023-12-20T09:41:05;99509.13;;;4.97;100.00
75136;BME280;63707;52.212;9.540;2023-12-20T09:43:31;99503.00;;;5.03;100.00
75136;BME280;63707;52.212;9.540;2023-12-20T09:46:04;99503.66;;;5.05;100.00
75136;BME280;63707;52.212;9.540;2023-12-20T09:48:31;99507.28;;;5.12;100.00
75136;BME280;63707;52.212;9.540;2023-12-20T09:50:58;99497.31;;;5.13;100.00
75136;BME280;63707;52.212;9.540;2023-12-20T09:53:24;99497.41;;;5.19;100.00
75136;BME280;63707;52.212;9.540;2023-12-20T09:55:55;99503.66;;;5.20;100.00
75136;BME280;63707;52.212;9.540;2023-12-20T09:58:23;99501.66;;;5.22;100.00
75136;BME280;63707;52.212;9.540;2023-12-20T10:00:49;99492.16;;;5.26;100.00
75136;BME280;63707;52.212;9.540;2023-12-20T10:03:19;99489.63;;;5.39;100.00
75136;BME280;63707;52.212;9.540;2023-12-20T10:05:49;99487.00;;;5.46;100.00
75136;BME280;63707;52.212;9.540;2023-12-20T10:08:21;99495.97;;;5.31;100.00
75136;BME280;63707;52.212;9.540;2023-12-20T10:10:47;99522.31;;;5.29;100.00
75136;BME280;63707;52.212;9.540;2023-12-20T10:13:13;99500.91;;;5.28;100.00
75136;BME280;63707;52.212;9.540;2023-12-20T10:15:38;99495.50;;;5.28;100.00
75136;BME280;63707;52.212;9.540;2023-12-20T10:18:05;99485.53;;;5.28;100.00
75136;BME280;63707;52.212;9.540;2023-12-20T10:20:32;99488.59;;;5.25;100.00
75136;BME280;63707;52.212;9.540;2023-12-20T10:22:58;99477.88;;;5.32;100.00
75136;BME280;63707;52.212;9.540;2023-12-20T10:25:24;99486.75;;;5.26;100.00
75136;BME280;63707;52.212;9.540;2023-12-20T10:27:51;99477.63;;;5.27;100.00
75136;BME280;63707;52.212;9.540;2023-12-20T10:30:33;99476.59;;;5.28;100.00
75136;BME280;63707;52.212;9.540;2023-12-20T10:32:58;99468.00;;;5.39;100.00
75136;BME280;63707;52.212;9.540;2023-12-20T10:35:24;99466.63;;;5.28;100.00
75136;BME280;63707;52.212;9.540;2023-12-20T10:37:55;99467.75;;;5.34;100.00
75136;BME280;63707;52.212;9.540;2023-12-20T10:40:21;99469.50;;;5.27;100.00
75136;BME280;63707;52.212;9.540;2023-12-20T10:42:48;99471.66;;;5.31;100.00
75136;BME280;63707;52.212;9.540;2023-12-20T10:45:16;99463.28;;;5.26;100.00
75136;BME280;63707;52.212;9.540;2023-12-20T10:47:43;99485.91;;;5.25;100.00
75136;BME280;63707;52.212;9.540;2023-12-20T10:50:11;99464.94;;;5.27;100.00
75136;BME280;63707;52.212;9.540;2023-12-20T10:52:37;99467.38;;;5.22;100.00
75136;BME280;63707;52.212;9.540;2023-12-20T10:55:06;99482.06;;;5.20;100.00
75136;BME280;63707;52.212;9.540;2023-12-20T10:57:32;99479.53;;;5.18;100.00
75136;BME280;63707;52.212;9.540;2023-12-20T11:00:00;99487.00;;;5.16;100.00
75136;BME280;63707;52.212;9.540;2023-12-20T11:02:32;99474.22;;;5.10;100.00
75136;BME280;63707;52.212;9.540;2023-12-20T11:05:05;99479.25;;;5.13;100.00
75136;BME280;63707;52.212;9.540;2023-12-20T11:07:36;99477.22;;;5.15;100.00
75136;BME280;63707;52.212;9.540;2023-12-20T11:10:23;99485.41;;;5.07;100.00
75136;BME280;63707;52.212;9.540;2023-12-20T11:12:53;99484.94;;;5.03;100.00
75136;BME280;63707;52.212;9.540;2023-12-20T11:15:21;99469.56;;;5.19;100.00
75136;BME280;63707;52.212;9.540;2023-12-20T11:17:54;99477.50;;;5.05;100.00
75136;BME280;63707;52.212;9.540;2023-12-20T11:20:22;99479.81;;;5.09;100.00
75136;BME280;63707;52.212;9.540;2023-12-20T11:22:52;99476.56;;;5.13;100.00
75136;BME280;63707;52.212;9.540;2023-12-20T11:25:18;99458.13;;;5.17;100.00
75136;BME280;63707;52.212;9.540;2023-12-20T11:28:09;99460.19;;;5.29;100.00
75136;BME280;63707;52.212;9.540;2023-12-20T11:30:50;99462.91;;;5.29;100.00
75136;BME280;63707;52.212;9.540;2023-12-20T11:33:16;99449.59;;;5.28;100.00
75136;BME280;63707;52.212;9.540;2023-12-20T11:35:42;99451.06;;;5.30;100.00
75136;BME280;63707;52.212;9.540;2023-12-20T11:38:08;99447.53;;;5.30;100.00
75136;BME280;63707;52.212;9.540;2023-12-20T11:40:35;99460.47;;;5.34;100.00
75136;BME280;63707;52.212;9.540;2023-12-20T11:43:02;99461.31;;;5.35;100.00
75136;BME280;63707;52.212;9.540;2023-12-20T11:45:28;99457.59;;;5.36;100.00
75136;BME280;63707;52.212;9.540;2023-12-20T11:47:54;99445.84;;;5.44;100.00
75136;BME280;63707;52.212;9.540;2023-12-20T11:50:23;99441.06;;;5.46;100.00
75136;BME280;63707;52.212;9.540;2023-12-20T11:52:50;99450.28;;;5.51;100.00
75136;BME280;63707;52.212;9.540;2023-12-20T11:55:17;99440.31;;;5.52;100.00
75136;BME280;63707;52.212;9.540;2023-12-20T11:57:43;99441.53;;;5.49;100.00
75136;BME280;63707;52.212;9.540;2023-12-20T12:00:11;99438.66;;;5.51;100.00
75136;BME280;63707;52.212;9.540;2023-12-20T12:02:36;99443.94;;;5.59;100.00
75136;BME280;63707;52.212;9.540;2023-12-20T12:05:02;99437.44;;;5.53;100.00
75136;BME280;63707;52.212;9.540;2023-12-20T12:07:30;99462.59;;;5.54;100.00
75136;BME280;63707;52.212;9.540;2023-12-20T12:09:56;99492.78;;;5.43;100.00
75136;BME280;63707;52.212;9.540;2023-12-20T12:12:21;99507.00;;;4.92;100.00
75136;BME280;63707;52.212;9.540;2023-12-20T12:14:49;99541.19;;;4.08;100.00
75136;BME280;63707;52.212;9.540;2023-12-20T12:17:15;99518.31;;;3.18;100.00
75136;BME280;63707;52.212;9.540;2023-12-20T12:19:42;99510.47;;;2.84;100.00
75136;BME280;63707;52.212;9.540;2023-12-20T12:22:08;99528.13;;;2.62;100.00
75136;BME280;63707;52.212;9.540;2023-12-20T12:24:37;99529.13;;;2.77;100.00
75136;BME280;63707;52.212;9.540;2023-12-20T12:27:05;99539.75;;;2.87;100.00
75136;BME280;63707;52.212;9.540;2023-12-20T12:29:31;99534.50;;;2.94;100.00
75136;BME280;63707;52.212;9.540;2023-12-20T12:31:56;99527.75;;;3.06;100.00
75136;BME280;63707;52.212;9.540;2023-12-20T12:34:23;99526.75;;;2.99;100.00
75136;BME280;63707;52.212;9.540;2023-12-20T12:36:49;99519.84;;;3.04;100.00
75136;BME280;63707;52.212;9.540;2023-12-20T12:39:14;99517.00;;;3.06;100.00
75136;BME280;63707;52.212;9.540;2023-12-20T12:41:41;99491.06;;;3.13;100.00
75136;BME280;63707;52.212;9.540;2023-12-20T12:44:06;99475.91;;;3.20;100.00
75136;BME280;63707;52.212;9.540;2023-12-20T12:46:32;99476.56;;;3.22;100.00
75136;BME280;63707;52.212;9.540;2023-12-20T12:48:58;99475.91;;;3.20;100.00
75136;BME280;63707;52.212;9.540;2023-12-20T12:51:25;99461.38;;;3.29;100.00
75136;BME280;63707;52.212;9.540;2023-12-20T12:53:50;99457.50;;;3.40;100.00
75136;BME280;63707;52.212;9.540;2023-12-20T12:56:16;99460.16;;;3.48;100.00